Time;durP1;ratioP1;P1;durP2;ratioP2;P2;SDS_P1;SDS_P2;PMS_P1;PMS_P2;Temp;Humidity;BMP_temperature;BMP_pressure;BME280_temperature;BME280_humidity;BME280_pressure;Samples;Min_cycle;Max_cycle;Signal;HPM_P1;HPM_P2
2022/12/17 13:06:53;;;;;;;4.50;2.65;;;3.90;99.90;;;;;;5009799;28;20050;-66
2022/12/17 13:09:32;;;;;;;1.98;1.88;;;3.90;99.90;;;;;;5009087;28;20058;-66
2022/12/17 13:12:03;;;;;;;0.32;0.32;;;4.10;99.90;;;;;;4989391;28;20186;-66
2022/12/17 13:14:49;;;;;;;9.13;3.97;;;4.20;99.90;;;;;;5003317;28;20052;-66
2022/12/17 13:17:15;;;;;;;1.75;1.65;;;4.30;99.90;;;;;;5004142;28;20042;-65
2022/12/17 13:19:58;;;;;;;0.98;0.98;;;4.20;99.90;;;;;;5009709;28;20057;-66
2022/12/17 13:22:24;;;;;;;1.75;1.65;;;4.30;99.90;;;;;;5009648;28;20042;-66
2022/12/17 13:24:53;;;;;;;0.85;0.85;;;4.20;99.90;;;;;;5009674;28;20053;-65
2022/12/17 13:27:38;;;;;;;5.40;4.00;;;4.40;99.90;;;;;;5010631;28;20502;-65
2022/12/17 13:30:16;;;;;;;1.85;1.08;;;4.40;99.90;;;;;;4991366;28;20042;-66
2022/12/17 13:32:46;;;;;;;8.57;3.30;;;4.30;99.90;;;;;;5010628;28;20389;-67
2022/12/17 13:35:30;;;;;;;0.63;0.63;;;4.20;99.90;;;;;;5009938;28;20053;-66
2022/12/17 13:38:40;;;;;;;0.85;0.85;;;4.00;99.90;;;;;;5009222;28;20037;-65
2022/12/17 13:41:09;;;;;;;2.63;2.42;;;3.80;99.90;;;;;;5009448;28;20049;-66
2022/12/17 13:43:52;;;;;;;0.40;0.40;;;3.50;99.90;;;;;;5007947;28;20050;-66
2022/12/17 13:46:40;;;;;;;2.08;1.98;;;3.40;99.90;;;;;;5009577;28;20096;-66
2022/12/17 13:49:19;;;;;;;2.63;2.53;;;3.30;99.90;;;;;;5029431;28;20046;-65
2022/12/17 13:51:45;;;;;;;5.00;3.08;;;3.10;99.90;;;;;;5027643;28;20063;-66
2022/12/17 13:54:18;;;;;;;2.55;1.48;;;3.10;99.90;;;;;;5028709;28;20052;-64
2022/12/17 13:56:45;;;;;;;2.38;0.85;;;3.00;99.90;;;;;;5026786;28;20053;-66
2022/12/17 13:59:19;;;;;;;1.20;1.20;;;2.90;99.90;;;;;;5028620;28;20079;-65
2022/12/17 14:01:50;;;;;;;3.30;1.67;;;2.70;99.90;;;;;;5027144;28;20575;-66
2022/12/17 14:04:27;;;;;;;1.35;1.05;;;2.70;99.90;;;;;;5029048;28;20045;-66
2022/12/17 14:06:56;;;;;;;1.65;1.55;;;2.70;99.90;;;;;;5028339;28;20037;-66
2022/12/17 14:09:47;;;;;;;1.88;1.75;;;2.70;99.90;;;;;;5026427;28;20472;-65
2022/12/17 14:12:21;;;;;;;1.08;1.08;;;2.60;99.90;;;;;;5025327;28;20059;-65
2022/12/17 14:15:10;;;;;;;1.90;1.80;;;2.60;99.90;;;;;;5029226;28;20485;-65
2022/12/17 14:17:47;;;;;;;0.82;0.82;;;2.50;99.90;;;;;;5028674;28;20041;-65
2022/12/17 14:20:24;;;;;;;5.47;2.60;;;2.50;99.90;;;;;;5029099;28;20049;-65
2022/12/17 14:22:58;;;;;;;2.58;2.47;;;2.40;99.90;;;;;;5029080;28;20045;-65
2022/12/17 14:25:28;;;;;;;1.30;1.30;;;2.40;99.90;;;;;;5026080;28;20409;-65
2022/12/17 14:28:03;;;;;;;0.57;0.57;;;2.30;99.90;;;;;;5028521;28;20119;-65
2022/12/17 14:30:31;;;;;;;10.35;3.20;;;2.30;99.90;;;;;;5026635;28;20527;-65
2022/12/17 14:32:57;;;;;;;0.85;0.85;;;2.20;99.90;;;;;;5026463;28;20045;-66
2022/12/17 14:35:29;;;;;;;2.50;2.30;;;2.20;99.90;;;;;;5027876;28;20524;-66
2022/12/17 14:37:55;;;;;;;0.55;0.55;;;2.30;99.90;;;;;;5023460;28;20049;-66
2022/12/17 14:40:23;;;;;;;0.50;0.50;;;2.20;99.90;;;;;;5021721;28;20049;-65
2022/12/17 14:42:50;;;;;;;2.40;2.03;;;2.20;99.90;;;;;;5027472;28;20050;-65
2022/12/17 14:45:15;;;;;;;0.35;0.35;;;2.20;99.90;;;;;;5024855;28;20448;-64
2022/12/17 14:47:58;;;;;;;3.92;1.90;;;2.10;99.90;;;;;;5012138;28;20062;-64
2022/12/17 14:50:28;;;;;;;3.07;2.60;;;2.10;99.90;;;;;;5009462;28;20050;-64
2022/12/17 14:52:55;;;;;;;0.85;0.85;;;2.10;99.90;;;;;;5008502;28;20120;-64
2022/12/17 14:55:30;;;;;;;2.80;2.60;;;2.00;99.90;;;;;;5008641;28;20109;-65
2022/12/17 14:58:25;;;;;;;2.25;2.05;;;1.90;99.90;;;;;;4986554;28;20128;-65
2022/12/17 15:01:11;;;;;;;0.75;0.75;;;1.90;99.90;;;;;;4991954;28;20397;-64
2022/12/17 15:03:40;;;;;;;1.83;1.67;;;1.80;99.90;;;;;;5006688;28;20170;-65
2022/12/17 15:06:08;;;;;;;1.30;1.20;;;1.80;99.90;;;;;;5008353;28;20521;-64
2022/12/17 15:08:38;;;;;;;2.95;2.53;;;1.60;99.90;;;;;;5005838;28;20054;-65
2022/12/17 15:11:04;;;;;;;0.93;0.93;;;1.70;99.90;;;;;;5007147;28;20034;-65
2022/12/17 15:13:29;;;;;;;9.07;3.70;;;1.60;99.90;;;;;;5008491;28;20065;-65
2022/12/17 15:15:55;;;;;;;0.40;0.40;;;1.60;99.90;;;;;;5006902;28;20049;-64
2022/12/17 15:18:20;;;;;;;2.47;1.50;;;1.60;99.90;;;;;;5008268;28;20037;-65
2022/12/17 15:20:46;;;;;;;0.35;0.35;;;1.60;99.90;;;;;;5007189;28;20486;-65
2022/12/17 15:23:18;;;;;;;2.22;2.10;;;1.60;99.90;;;;;;5004116;28;20112;-65
2022/12/17 15:25:45;;;;;;;5.75;2.03;;;1.60;99.90;;;;;;5002251;28;20516;-66
2022/12/17 15:28:11;;;;;;;2.90;1.90;;;1.60;99.90;;;;;;5007934;28;20045;-66
2022/12/17 15:30:38;;;;;;;1.25;1.25;;;1.50;99.90;;;;;;5007916;28;20132;-66
2022/12/17 15:33:05;;;;;;;1.55;1.50;;;1.50;99.90;;;;;;5008496;28;20042;-66
2022/12/17 15:35:31;;;;;;;2.30;2.17;;;1.50;99.90;;;;;;5005625;28;20068;-66
2022/12/17 15:37:57;;;;;;;0.90;0.90;;;1.40;99.90;;;;;;5006331;28;20054;-66
2022/12/17 15:40:22;;;;;;;1.42;1.20;;;1.40;99.90;;;;;;5008135;28;20060;-66
2022/12/17 15:45:32;;;;;;;1.65;1.55;;;1.30;99.90;;;;;;5008339;28;20045;-66
2022/12/17 15:47:58;;;;;;;3.47;1.75;;;1.40;99.90;;;;;;5025430;28;20049;-66
2022/12/17 15:50:23;;;;;;;0.73;0.73;;;1.40;99.90;;;;;;5027408;28;20397;-66
2022/12/17 15:52:49;;;;;;;0.65;0.65;;;1.40;99.90;;;;;;5022922;28;20057;-66
2022/12/17 15:55:15;;;;;;;3.60;3.33;;;1.30;99.90;;;;;;5027337;28;20056;-66
2022/12/17 15:57:40;;;;;;;3.67;2.45;;;1.30;99.90;;;;;;5022937;28;20042;-66
2022/12/17 16:00:07;;;;;;;0.90;0.90;;;1.30;99.90;;;;;;5032281;28;20045;-66
2022/12/17 16:02:32;;;;;;;5.13;2.10;;;1.30;99.90;;;;;;5027105;28;20485;-66
2022/12/17 16:04:58;;;;;;;0.65;0.65;;;1.30;99.90;;;;;;5025781;28;20053;-66
2022/12/17 16:07:23;;;;;;;1.73;1.63;;;1.30;99.90;;;;;;5027305;28;20048;-66
2022/12/17 16:09:49;;;;;;;3.35;3.13;;;1.30;99.90;;;;;;5026743;28;20050;-66
2022/12/17 16:12:15;;;;;;;3.28;3.03;;;1.30;99.90;;;;;;5026658;28;20055;-66
2022/12/17 16:14:40;;;;;;;0.75;0.75;;;1.30;99.90;;;;;;5019917;28;20057;-66
2022/12/17 16:17:06;;;;;;;0.77;0.77;;;1.30;99.90;;;;;;5016097;28;20470;-66
2022/12/17 16:19:31;;;;;;;1.35;1.20;;;1.20;99.90;;;;;;5024727;28;20396;-66
2022/12/17 16:21:57;;;;;;;3.75;3.00;;;1.20;99.90;;;;;;5025739;28;20095;-66
2022/12/17 16:24:23;;;;;;;0.68;0.68;;;1.20;99.90;;;;;;5027620;28;20041;-66
2022/12/17 16:26:48;;;;;;;2.30;1.95;;;1.20;99.90;;;;;;5025816;28;20045;-66
2022/12/17 16:29:14;;;;;;;3.05;2.75;;;1.10;99.90;;;;;;5024895;28;20428;-65
2022/12/17 16:31:40;;;;;;;1.52;1.50;;;1.10;99.90;;;;;;5023393;28;20045;-65
2022/12/17 16:34:09;;;;;;;1.33;1.33;;;1.10;99.90;;;;;;5025225;28;20512;-66
2022/12/17 16:36:35;;;;;;;0.10;0.10;;;1.00;99.90;;;;;;5022100;28;20061;-66
2022/12/17 16:39:02;;;;;;;8.32;3.70;;;1.00;99.90;;;;;;5024418;28;20042;-64
2022/12/17 16:41:28;;;;;;;1.02;1.02;;;1.00;99.90;;;;;;5025963;28;20650;-65
2022/12/17 16:43:54;;;;;;;1.75;1.65;;;1.00;99.90;;;;;;5026443;28;20049;-65
2022/12/17 16:46:29;;;;;;;2.75;2.58;;;0.90;99.90;;;;;;5026304;28;20057;-65
2022/12/17 16:48:57;;;;;;;1.00;1.00;;;0.90;99.90;;;;;;5025527;28;20084;-65
2022/12/17 16:51:26;;;;;;;0.47;0.47;;;0.90;99.90;;;;;;5029006;28;20041;-65
2022/12/17 16:53:52;;;;;;;2.90;2.70;;;0.90;99.90;;;;;;5030279;28;20045;-65
2022/12/17 16:56:23;;;;;;;2.58;2.47;;;0.90;99.90;;;;;;5027698;28;20041;-65
2022/12/17 16:58:49;;;;;;;0.93;0.93;;;0.80;99.90;;;;;;5028565;28;20791;-65
2022/12/17 17:01:24;;;;;;;2.42;2.25;;;0.90;99.90;;;;;;5023180;28;20044;-66
2022/12/17 17:03:50;;;;;;;6.22;2.50;;;0.90;99.90;;;;;;5038776;28;20045;-66
2022/12/17 17:06:17;;;;;;;3.85;1.67;;;0.80;99.90;;;;;;5027423;28;20440;-66
2022/12/17 17:08:43;;;;;;;2.75;2.10;;;0.70;99.90;;;;;;5028015;28;20076;-66
2022/12/17 17:11:23;;;;;;;4.05;3.75;;;0.70;99.90;;;;;;5030767;28;20133;-65
2022/12/17 17:13:51;;;;;;;2.22;2.10;;;0.70;99.90;;;;;;5030711;28;20103;-66
2022/12/17 17:16:18;;;;;;;0.90;0.90;;;0.70;99.90;;;;;;5030196;28;20037;-66
2022/12/17 17:18:44;;;;;;;19.08;5.28;;;0.70;99.90;;;;;;5029394;28;20046;-66
2022/12/17 17:21:24;;;;;;;2.53;2.42;;;0.70;99.90;;;;;;5031041;28;20052;-66
2022/12/17 17:23:55;;;;;;;4.68;1.63;;;0.60;99.90;;;;;;5027654;28;20041;-66
2022/12/17 17:26:21;;;;;;;3.20;2.92;;;0.60;99.90;;;;;;5019451;28;20095;-65
2022/12/17 17:28:47;;;;;;;1.75;1.65;;;0.60;99.90;;;;;;5027071;28;20045;-65
2022/12/17 17:31:14;;;;;;;3.60;2.15;;;0.60;99.90;;;;;;5026015;28;20041;-65
2022/12/17 17:33:43;;;;;;;1.55;1.50;;;0.60;99.90;;;;;;5033911;28;20492;-65
2022/12/17 17:36:14;;;;;;;0.63;0.63;;;0.60;99.90;;;;;;5028057;28;20769;-66
2022/12/17 17:38:40;;;;;;;3.17;2.90;;;0.60;99.90;;;;;;5027856;28;20053;-65
2022/12/17 17:41:09;;;;;;;5.72;1.40;;;0.60;99.90;;;;;;5029031;28;20041;-65
2022/12/17 17:43:35;;;;;;;0.98;0.98;;;0.60;99.90;;;;;;5028305;28;20100;-64
2022/12/17 17:46:06;;;;;;;4.43;3.50;;;0.60;99.90;;;;;;5029895;28;20053;-64
2022/12/17 17:48:33;;;;;;;11.05;4.38;;;0.50;99.90;;;;;;5026679;28;20111;-64
2022/12/17 17:51:11;;;;;;;1.10;1.10;;;0.60;99.90;;;;;;5026758;28;20037;-64
2022/12/17 17:53:37;;;;;;;2.20;2.05;;;0.50;99.90;;;;;;5025306;28;20042;-64
2022/12/17 17:56:18;;;;;;;1.95;1.85;;;0.60;99.90;;;;;;5025938;28;20049;-63
2022/12/17 17:58:50;;;;;;;0.98;0.98;;;0.60;99.90;;;;;;5028476;28;20098;-63
2022/12/17 18:01:20;;;;;;;5.28;2.72;;;0.50;99.90;;;;;;5025529;28;20045;-63
2022/12/17 18:03:45;;;;;;;1.00;1.00;;;0.50;99.90;;;;;;5024195;28;20581;-64
2022/12/17 18:06:12;;;;;;;0.75;0.75;;;0.50;99.90;;;;;;5027555;28;20041;-64
2022/12/17 18:08:39;;;;;;;1.27;0.90;;;0.50;99.90;;;;;;5026271;28;20087;-63
2022/12/17 18:11:07;;;;;;;0.57;0.57;;;0.40;99.90;;;;;;5023547;28;20069;-63
2022/12/17 18:16:19;;;;;;;0.43;0.43;;;0.40;99.90;;;;;;5016934;28;20046;-64
2022/12/17 18:18:45;;;;;;;2.30;1.95;;;0.40;99.90;;;;;;5021816;28;20414;-64
2022/12/17 18:21:14;;;;;;;1.05;1.05;;;0.40;99.90;;;;;;5024207;28;20176;-64
2022/12/17 18:23:40;;;;;;;7.88;3.60;;;0.40;99.90;;;;;;5025552;28;20037;-64
2022/12/17 18:26:09;;;;;;;0.20;0.20;;;0.40;99.90;;;;;;5024596;28;20068;-64
2022/12/17 18:28:38;;;;;;;2.85;2.70;;;0.40;99.90;;;;;;5020191;28;20034;-64
2022/12/17 18:31:29;;;;;;;2.35;2.15;;;0.40;99.90;;;;;;5023333;28;20148;-65
2022/12/17 18:33:57;;;;;;;5.07;1.15;;;0.30;99.90;;;;;;5018664;28;20061;-65
2022/12/17 18:36:36;;;;;;;0.55;0.55;;;0.30;99.90;;;;;;5020918;28;20069;-65
2022/12/17 18:39:09;;;;;;;1.27;1.10;;;0.20;99.90;;;;;;5022673;28;20052;-64
2022/12/17 18:44:20;;;;;;;2.50;2.35;;;0.20;99.90;;;;;;5027305;28;20136;-65
2022/12/17 18:46:46;;;;;;;0.70;0.70;;;0.20;99.90;;;;;;5022256;28;20057;-65
2022/12/17 18:49:14;;;;;;;4.32;3.97;;;0.20;99.90;;;;;;5027619;28;20056;-64
2022/12/17 18:51:42;;;;;;;1.27;1.20;;;0.20;99.90;;;;;;5024033;28;20374;-64
2022/12/17 18:54:13;;;;;;;3.30;2.60;;;0.10;99.90;;;;;;5025438;28;20379;-64
2022/12/17 18:56:39;;;;;;;1.70;1.60;;;0.10;99.90;;;;;;5022267;28;20037;-64
2022/12/17 18:59:05;;;;;;;1.85;1.75;;;0.00;99.90;;;;;;5021419;28;20094;-64
2022/12/17 19:01:33;;;;;;;2.97;1.75;;;0.00;99.90;;;;;;5026564;28;20037;-64
2022/12/17 19:04:04;;;;;;;3.60;3.30;;;0.00;99.90;;;;;;5027363;28;20053;-64
2022/12/17 19:06:32;;;;;;;5.40;3.05;;;0.00;99.90;;;;;;5027592;28;20052;-64
2022/12/17 19:08:57;;;;;;;0.55;0.40;;;0.00;99.90;;;;;;5024899;28;20080;-64
2022/12/17 19:11:23;;;;;;;1.67;1.60;;;0.00;99.90;;;;;;5027252;28;20084;-64
2022/12/17 19:13:49;;;;;;;1.38;1.35;;;0.00;99.90;;;;;;5027665;28;20114;-64
2022/12/17 19:16:21;;;;;;;0.85;0.85;;;0.00;99.90;;;;;;5021213;28;20588;-64
2022/12/17 19:19:03;;;;;;;0.40;0.40;;;0.00;99.90;;;;;;5019424;28;20156;-64
2022/12/17 19:21:30;;;;;;;4.15;1.80;;;0.00;99.90;;;;;;5022561;28;20045;-64
2022/12/17 19:23:58;;;;;;;0.85;0.85;;;0.00;99.90;;;;;;5021833;28;20037;-64
2022/12/17 19:26:25;;;;;;;1.83;1.73;;;-0.10;99.90;;;;;;5022844;28;20102;-64
2022/12/17 19:28:53;;;;;;;1.67;1.58;;;-0.10;99.90;;;;;;5030238;28;20037;-64
2022/12/17 19:31:20;;;;;;;3.30;2.25;;;0.00;99.90;;;;;;5026625;28;20116;-64
2022/12/17 19:33:47;;;;;;;0.70;0.70;;;-0.10;99.90;;;;;;5025754;28;20101;-64
2022/12/17 19:36:15;;;;;;;1.77;1.67;;;-0.20;99.90;;;;;;5025528;28;20048;-64
2022/12/17 19:38:41;;;;;;;4.57;2.17;;;-0.20;99.90;;;;;;5019467;28;20113;-64
2022/12/17 19:41:15;;;;;;;1.98;1.27;;;-0.20;99.90;;;;;;5028439;28;20120;-64
2022/12/17 19:43:41;;;;;;;;;;;-0.20;99.90;;;;;;5025182;28;20053;-64
2022/12/17 19:46:10;;;;;;;0.77;0.77;;;-0.20;99.90;;;;;;5022225;28;19921;-64
2022/12/17 19:48:36;;;;;;;1.00;1.00;;;-0.10;99.90;;;;;;5006059;28;20042;-64
2022/12/17 19:51:03;;;;;;;12.65;5.40;;;-0.20;99.90;;;;;;5007842;28;20053;-64
2022/12/17 19:53:30;;;;;;;2.20;2.05;;;-0.10;99.90;;;;;;5007464;28;20060;-64
2022/12/17 19:56:07;;;;;;;3.80;2.05;;;-0.20;99.90;;;;;;5003421;28;20042;-64
2022/12/17 19:58:32;;;;;;;4.55;3.83;;;-0.20;99.90;;;;;;5010356;28;20046;-64
2022/12/17 20:01:14;;;;;;;1.77;1.67;;;-0.20;99.90;;;;;;5010226;28;20038;-64
2022/12/17 20:03:42;;;;;;;3.13;2.17;;;-0.20;99.90;;;;;;5007915;28;20054;-64
2022/12/17 20:06:09;;;;;;;1.52;1.48;;;-0.20;99.90;;;;;;5010334;28;20042;-64
2022/12/17 20:08:35;;;;;;;1.17;1.17;;;-0.20;99.90;;;;;;5008407;28;20053;-64
2022/12/17 20:11:31;;;;;;;0.52;0.52;;;-0.20;99.90;;;;;;5008913;28;20450;-64
2022/12/17 20:14:07;;;;;;;1.25;1.25;;;-0.30;99.90;;;;;;5008280;28;20050;-64
2022/12/17 20:16:42;;;;;;;1.20;1.20;;;-0.40;99.90;;;;;;5002720;28;20405;-64
2022/12/17 20:19:11;;;;;;;2.35;2.25;;;-0.40;99.90;;;;;;5008170;28;20044;-64
2022/12/17 20:21:37;;;;;;;1.63;1.52;;;-0.50;99.90;;;;;;5009691;28;20050;-64
2022/12/17 20:24:03;;;;;;;1.65;1.55;;;-0.40;99.90;;;;;;5011557;28;20054;-64
2022/12/17 20:26:29;;;;;;;1.58;1.48;;;-0.50;99.90;;;;;;5008667;28;20494;-64
2022/12/17 20:28:55;;;;;;;1.38;1.38;;;-0.60;99.90;;;;;;5013402;28;20114;-64
2022/12/17 20:31:21;;;;;;;3.90;3.25;;;-0.60;99.90;;;;;;5003367;28;20461;-63
2022/12/17 20:33:46;;;;;;;2.40;2.22;;;-0.60;99.90;;;;;;5012959;28;20061;-64
2022/12/17 20:36:14;;;;;;;7.43;3.40;;;-0.60;99.90;;;;;;5012146;28;20057;-63
2022/12/17 20:38:41;;;;;;;1.10;1.10;;;-0.60;99.90;;;;;;5012676;28;20103;-63
2022/12/17 20:41:12;;;;;;;3.17;2.92;;;-0.60;99.90;;;;;;5013507;28;20041;-63
2022/12/17 20:43:38;;;;;;;1.38;1.17;;;-0.60;99.90;;;;;;5012948;28;20485;-63
2022/12/17 20:46:05;;;;;;;1.77;1.67;;;-0.60;99.90;;;;;;5013370;28;20382;-63
2022/12/17 20:48:31;;;;;;;2.63;2.33;;;-0.50;99.90;;;;;;5031904;28;20042;-63
2022/12/17 20:50:57;;;;;;;2.97;2.63;;;-0.60;99.90;;;;;;5032852;28;20381;-63
2022/12/17 20:53:22;;;;;;;6.13;1.65;;;-0.60;99.90;;;;;;5030781;28;20044;-64
2022/12/17 20:55:58;;;;;;;4.15;3.85;;;-0.70;99.90;;;;;;5030426;28;20053;-63
2022/12/17 20:58:24;;;;;;;3.25;2.95;;;-0.70;99.90;;;;;;5032357;28;20121;-63
2022/12/17 21:00:50;;;;;;;5.25;3.10;;;-0.70;99.90;;;;;;5031638;28;20531;-63
2022/12/17 21:03:16;;;;;;;4.38;3.97;;;-0.70;99.90;;;;;;5025197;28;20050;-64
2022/12/17 21:05:41;;;;;;;0.85;0.85;;;-0.70;99.90;;;;;;5032033;28;20501;-63
2022/12/17 21:08:07;;;;;;;2.90;2.70;;;-0.70;99.90;;;;;;5031710;28;20397;-63
2022/12/17 21:10:33;;;;;;;0.43;0.43;;;-0.70;99.90;;;;;;5030819;28;20037;-63
2022/12/17 21:15:52;;;;;;;;;;;-0.80;99.90;;;;;;5027459;28;20046;-64
2022/12/17 21:18:18;;;;;;;2.65;2.47;;;-0.80;99.90;;;;;;5031509;28;19980;-63
2022/12/17 21:20:59;;;;;;;2.15;2.05;;;-0.80;99.90;;;;;;5030699;28;20112;-64
2022/12/17 21:23:25;;;;;;;4.85;4.20;;;-0.80;99.90;;;;;;5031028;28;20083;-63
2022/12/17 21:26:03;;;;;;;1.50;1.40;;;-0.80;99.90;;;;;;5027991;28;21085;-63
2022/12/17 21:28:29;;;;;;;1.95;1.85;;;-0.70;99.90;;;;;;5028095;28;20123;-63
2022/12/17 21:30:55;;;;;;;1.52;1.50;;;-0.80;99.90;;;;;;5029669;28;20046;-63
2022/12/17 21:33:21;;;;;;;2.05;1.90;;;-0.80;99.90;;;;;;5031554;28;20049;-63
2022/12/17 21:35:47;;;;;;;0.30;0.30;;;-0.80;99.90;;;;;;5030387;28;20057;-63
2022/12/17 21:38:13;;;;;;;1.95;1.88;;;-0.80;99.90;;;;;;5030296;28;20133;-63
2022/12/17 21:40:39;;;;;;;2.38;1.75;;;-0.90;99.90;;;;;;5030737;28;20128;-63
2022/12/17 21:43:04;;;;;;;1.00;1.00;;;-0.80;99.90;;;;;;5030654;28;20041;-63
2022/12/17 21:45:39;;;;;;;2.83;2.50;;;-0.90;99.90;;;;;;5028919;28;20064;-64
2022/12/17 21:48:06;;;;;;;1.23;1.23;;;-0.90;99.90;;;;;;5031945;28;20045;-63
2022/12/17 21:50:32;;;;;;;1.92;1.83;;;-0.90;99.90;;;;;;5029402;28;20094;-63
2022/12/17 21:52:58;;;;;;;2.35;2.25;;;-0.90;99.90;;;;;;5031710;28;20529;-63
2022/12/17 21:55:24;;;;;;;2.45;2.28;;;-0.80;99.90;;;;;;5030745;28;20049;-63
2022/12/17 21:57:49;;;;;;;2.95;2.75;;;-0.90;99.90;;;;;;5028718;28;20099;-63
2022/12/17 22:00:15;;;;;;;1.60;1.58;;;-0.90;99.90;;;;;;5030953;28;20049;-63
2022/12/17 22:02:41;;;;;;;2.17;2.08;;;-0.90;99.90;;;;;;5031075;28;20037;-63
2022/12/17 22:05:07;;;;;;;1.45;1.35;;;-1.00;99.90;;;;;;5031265;28;20041;-63
2022/12/17 22:07:33;;;;;;;0.85;0.85;;;-1.00;99.90;;;;;;5029305;28;20055;-63
2022/12/17 22:09:58;;;;;;;1.48;1.45;;;-1.00;99.90;;;;;;5027669;28;20762;-63
2022/12/17 22:15:09;;;;;;;3.28;3.00;;;-1.00;99.90;;;;;;5028437;28;20053;-63
2022/12/17 22:17:36;;;;;;;6.35;4.22;;;-1.00;99.90;;;;;;5028196;28;20505;-63
2022/12/17 22:20:05;;;;;;;1.40;1.33;;;-1.00;99.90;;;;;;5028719;28;20091;-63
2022/12/17 22:22:31;;;;;;;0.82;0.82;;;-1.00;99.90;;;;;;5029035;28;20132;-63
2022/12/17 22:24:56;;;;;;;4.18;1.73;;;-1.00;99.90;;;;;;5027335;28;20550;-62
2022/12/17 22:27:22;;;;;;;2.08;1.23;;;-0.90;99.90;;;;;;5028135;28;20404;-63
2022/12/17 22:35:16;;;;;;;7.30;3.65;;;-0.90;99.90;;;;;;5029376;28;20060;-63
2022/12/17 22:37:42;;;;;;;2.72;2.53;;;-0.90;99.90;;;;;;5027502;28;20041;-63
2022/12/17 22:40:09;;;;;;;2.92;2.70;;;-0.90;99.90;;;;;;5026837;28;20122;-63
2022/12/17 22:45:18;;;;;;;1.55;1.48;;;-1.00;99.90;;;;;;5027156;28;20072;-63
2022/12/17 22:47:44;;;;;;;2.28;2.17;;;-1.00;99.90;;;;;;5026848;28;20576;-63
2022/12/17 22:50:10;;;;;;;1.45;1.00;;;-1.10;99.90;;;;;;5028602;28;20488;-63
2022/12/17 22:52:36;;;;;;;1.90;1.75;;;-1.10;99.90;;;;;;5028347;28;20057;-63
2022/12/17 22:55:02;;;;;;;2.60;2.47;;;-1.00;99.90;;;;;;5027980;28;20053;-63
2022/12/17 22:57:27;;;;;;;3.00;2.80;;;-1.10;99.90;;;;;;5027881;28;20038;-63
2022/12/17 22:59:53;;;;;;;1.60;1.58;;;-1.10;99.90;;;;;;5025153;28;20041;-63
2022/12/17 23:02:18;;;;;;;0.50;0.50;;;-1.00;99.90;;;;;;5028475;28;20042;-63
2022/12/17 23:04:44;;;;;;;3.63;2.75;;;-1.00;99.90;;;;;;5027255;28;20045;-63
2022/12/17 23:07:09;;;;;;;1.52;1.42;;;-1.00;99.90;;;;;;5028361;28;20072;-63
2022/12/17 23:09:35;;;;;;;0.73;0.73;;;-1.00;99.90;;;;;;5028794;28;20461;-63
2022/12/17 23:12:49;;;;;;;1.10;1.10;;;-1.00;99.90;;;;;;5027486;28;20099;-63
2022/12/17 23:14:46;;;;;;;2.33;1.48;;;-1.10;99.90;;;;;;5025791;28;20045;-63
2022/12/17 23:17:12;;;;;;;3.03;2.83;;;-1.00;99.90;;;;;;5028801;28;20037;-63
2022/12/17 23:19:37;;;;;;;5.50;4.25;;;-1.10;99.90;;;;;;5026941;28;20128;-63
2022/12/17 23:22:03;;;;;;;0.73;0.73;;;-1.10;99.90;;;;;;5026962;28;20041;-63
2022/12/17 23:24:28;;;;;;;1.80;1.70;;;-1.10;99.90;;;;;;5026945;28;20159;-63
2022/12/17 23:26:54;;;;;;;1.35;1.33;;;-1.10;99.90;;;;;;5023010;28;20037;-63
2022/12/17 23:29:19;;;;;;;0.47;0.47;;;-1.10;99.90;;;;;;5027099;28;20531;-63
2022/12/17 23:31:45;;;;;;;0.77;0.77;;;-1.20;99.90;;;;;;5026209;28;20049;-63
2022/12/17 23:34:11;;;;;;;2.00;1.85;;;-1.20;99.90;;;;;;5026604;28;20110;-63
2022/12/17 23:36:37;;;;;;;0.70;0.70;;;-1.20;99.90;;;;;;5028319;28;20139;-63
2022/12/17 23:39:03;;;;;;;2.22;2.13;;;-1.20;99.90;;;;;;5026285;28;20075;-63
2022/12/17 23:41:29;;;;;;;0.30;0.30;;;-1.20;99.90;;;;;;5027699;28;20042;-63
2022/12/17 23:43:56;;;;;;;6.22;5.25;;;-1.20;99.90;;;;;;5028477;28;20372;-63
2022/12/17 23:46:24;;;;;;;6.28;2.80;;;-1.20;99.90;;;;;;5018817;28;20063;-63
2022/12/17 23:48:49;;;;;;;1.08;1.08;;;-1.10;99.90;;;;;;5007879;28;20073;-63
2022/12/17 23:51:17;;;;;;;1.50;1.48;;;-1.10;99.90;;;;;;5009119;28;20081;-63
2022/12/17 23:53:43;;;;;;;0.93;0.90;;;-1.10;99.90;;;;;;5006292;28;20069;-63
2022/12/17 23:56:17;;;;;;;1.65;1.55;;;-1.10;99.90;;;;;;5005537;28;20121;-63
2022/12/17 23:58:45;;;;;;;1.23;1.10;;;-1.10;99.90;;;;;;5013517;28;20049;-63
